Lincoln University, PA

5:17 AM EDT on May 28, 2015 (GMT -0400)
APRSWXNET | | Change Station
CLOSE
Current Station
Personal Weather Station
Location: Lincoln University, PA
Elevation: 459 ft
Nearby Weather Stations

Elev 459 ft 39.77 °N, 75.93 °W | Updated 45 minutes ago

Mostly Cloudy
Mostly Cloudy
70 °F
Feels Like 70 °F
N
0
Wind Variable Wind from North
Gusts 0.0 mph

Today
High -- | Low -- °F
--% Chance of Precip.
Yesterday
High -- | Low -- °F
Precip. -- in
5:39 AM 8:22 PM
Waxing Gibbous, 74% visible
Pressure 30.15 in
Visibility 1.5 miles
Clouds Overcast 100 ft
Dew Point 69 °F
Humidity 98%
Rainfall in
Snow Depth Not available.
UV 0 out of 12
Pollen 4.50 out of 12
Air Quality Not available.
Flu Activity Sporadic
METAR KMQS 280900Z AUTO 00000KT 1 1/2SM BR OVC001 20/20 A3015 RMK AO2

More Conditions Fewer Conditions

Pressure 30.15 in
Visibility 1.5 miles
Clouds Overcast 100 ft
Dew Point 69 °F
Humidity 98%
Rainfall in
Snow Depth Not available.
UV 0 out of 12
Pollen 4.50 out of 12
Air Quality Not available.
Flu Activity Sporadic
METAR KMQS 280900Z AUTO 00000KT 1 1/2SM BR OVC001 20/20 A3015 RMK AO2

More Conditions Fewer Conditions

Nowcast | as of 5:02 am EDT on May 28, 2015

Patchy fog will persist across southeastern Pennsylvania, northwestern and central New Jersey, and the far northern Delmarva Peninsula through sunrise. Visibilities of less than a mile at times will be possible. Motorists are urged to exercise caution for rapidly changing visbilities. Use low beam headlights and allow extra time to reach your destination.

×

10-Day Weather Forecast

Almanac

Astronomy

May. 28, 2015 Rise Set
Actual Time
Civil Twilight
Nautical Twilight
Astronomical Twilight
Moon
Length of Visible Light
Length of Day
Tomorrow will be .
, % of the Moon is Illuminated

Today's Extremes

State Highs State Lows

Community

WunderPhotos

Upload Photos

1,824,935 photos uploaded!

WunderBlogs® & News

Nearby

Air Quality

  Air Quality AQ Index Pollutant
Not available.

Snow Depth

Station Depth Elevation

Earthquake Activity

City Distance Mag. Time & Date
Minimum magnitude displayed is 2.5.

Coastal Water Temperatures

Place Temperature

Stations

Nearby Weather Stations

Station Location Temp. Windchill Dew Point Humidity Wind Precip. Elev Updated Type